createdAt,value
2017-09-18T00:00:03.849Z,9.02
2017-09-18T00:01:03.844Z,9.04
2017-09-18T00:02:03.843Z,9.02
2017-09-18T00:03:03.836Z,9.04
2017-09-18T00:04:03.833Z,9.08
2017-09-18T00:05:03.829Z,9.11
2017-09-18T00:06:03.823Z,8.94
2017-09-18T00:07:03.819Z,8.97
2017-09-18T00:08:03.813Z,8.97
2017-09-18T00:09:03.808Z,8.87
2017-09-18T00:10:03.805Z,8.94
2017-09-18T00:11:03.801Z,8.97
2017-09-18T00:12:03.802Z,8.97
2017-09-18T00:13:03.793Z,8.92
2017-09-18T00:14:03.789Z,8.95
2017-09-18T00:15:03.785Z,8.87
2017-09-18T00:16:03.778Z,8.87
2017-09-18T00:17:03.777Z,8.85
2017-09-18T00:18:03.777Z,8.82
2017-09-18T00:19:03.769Z,8.88
2017-09-18T00:20:03.762Z,8.81
2017-09-18T00:21:03.758Z,8.91
2017-09-18T00:22:03.756Z,8.89
2017-09-18T00:23:03.752Z,8.81
2017-09-18T00:24:03.747Z,8.84
2017-09-18T00:25:03.742Z,8.76
2017-09-18T00:26:03.737Z,8.76
2017-09-18T00:27:03.732Z,8.73
2017-09-18T00:28:03.731Z,8.64
2017-09-18T00:29:03.724Z,8.53
2017-09-18T00:30:03.717Z,8.58
2017-09-18T00:31:03.721Z,8.55
2017-09-18T00:32:03.713Z,8.61
2017-09-18T00:33:03.706Z,8.61
2017-09-18T00:34:03.702Z,8.60
2017-09-18T00:35:03.698Z,8.61
2017-09-18T00:36:03.691Z,8.71
2017-09-18T00:37:03.696Z,8.66
2017-09-18T00:38:03.685Z,8.56
2017-09-18T00:39:03.685Z,8.70
2017-09-18T00:40:03.678Z,8.71
2017-09-18T00:41:03.674Z,8.67
2017-09-18T00:42:03.669Z,8.73
2017-09-18T00:43:03.662Z,8.74
2017-09-18T00:44:03.663Z,8.81
2017-09-18T00:45:03.653Z,8.79
2017-09-18T00:46:03.648Z,8.71
2017-09-18T00:47:03.645Z,8.69
2017-09-18T00:48:03.639Z,8.71
2017-09-18T00:49:03.640Z,8.61
2017-09-18T00:50:03.634Z,8.61
2017-09-18T00:51:03.627Z,8.66
2017-09-18T00:52:03.625Z,8.58
2017-09-18T00:53:03.618Z,8.64
2017-09-18T00:54:03.614Z,8.64
2017-09-18T00:55:03.610Z,8.63
2017-09-18T00:56:03.606Z,8.55
2017-09-18T00:57:03.599Z,8.51
2017-09-18T00:58:03.594Z,8.52
2017-09-18T00:59:03.589Z,8.55
2017-09-18T01:00:03.584Z,8.58
2017-09-18T01:01:03.581Z,8.52
2017-09-18T01:02:03.577Z,8.55
2017-09-18T01:03:03.572Z,8.60
2017-09-18T01:04:03.572Z,8.53
2017-09-18T01:05:03.563Z,8.44
2017-09-18T01:06:03.560Z,8.30
2017-09-18T01:07:03.553Z,8.38
2017-09-18T01:08:03.551Z,8.36
2017-09-18T01:09:03.544Z,8.45
2017-09-18T01:10:03.542Z,8.46
2017-09-18T01:11:03.536Z,8.45
2017-09-18T01:12:03.535Z,8.41
2017-09-18T01:13:03.526Z,8.44
2017-09-18T01:14:03.522Z,8.42
2017-09-18T01:15:03.519Z,8.33
2017-09-18T01:16:03.511Z,8.38
2017-09-18T01:17:03.507Z,8.27
2017-09-18T01:18:03.500Z,8.42
2017-09-18T01:19:03.500Z,8.38
2017-09-18T01:20:03.494Z,8.36
2017-09-18T01:21:03.488Z,8.27
2017-09-18T01:22:03.485Z,8.30
2017-09-18T01:23:03.481Z,8.27
2017-09-18T01:24:03.474Z,8.26
2017-09-18T01:25:03.471Z,8.20
2017-09-18T01:26:03.467Z,8.18
2017-09-18T01:27:03.459Z,8.20
2017-09-18T01:28:03.457Z,8.19
2017-09-18T01:29:03.452Z,8.27
2017-09-18T01:30:03.454Z,8.18
2017-09-18T01:31:03.443Z,8.20
2017-09-18T01:32:03.437Z,8.24
2017-09-18T01:33:03.433Z,8.24
2017-09-18T01:34:03.429Z,8.27
2017-09-18T01:35:03.453Z,8.20
2017-09-18T01:36:03.418Z,8.16
2017-09-18T01:37:03.414Z,8.19
2017-09-18T01:38:03.410Z,8.16
2017-09-18T01:39:03.404Z,8.27
2017-09-18T01:40:03.400Z,8.26
2017-09-18T01:41:03.394Z,8.18
2017-09-18T01:42:03.391Z,8.26
2017-09-18T01:43:03.384Z,8.18
2017-09-18T01:44:03.381Z,8.19
2017-09-18T01:45:03.377Z,8.18
2017-09-18T01:46:03.370Z,8.16
2017-09-18T01:47:03.366Z,8.16
2017-09-18T01:48:03.362Z,8.15
2017-09-18T01:49:03.358Z,8.16
2017-09-18T01:50:03.355Z,8.18
2017-09-18T01:51:03.347Z,8.16
2017-09-18T01:52:03.340Z,8.09
2017-09-18T01:53:03.332Z,8.27
2017-09-18T01:54:03.331Z,8.24
2017-09-18T01:55:03.329Z,8.20
2017-09-18T01:56:03.327Z,8.19
2017-09-18T01:57:03.319Z,8.24
2017-09-18T01:58:03.313Z,8.15
2017-09-18T01:59:03.314Z,8.05
2017-09-18T02:00:03.300Z,8.00
2017-09-18T02:01:03.300Z,8.08
2017-09-18T02:02:03.295Z,8.12
2017-09-18T02:03:03.291Z,8.23
2017-09-18T02:04:03.284Z,8.09
2017-09-18T02:05:03.278Z,8.10
2017-09-18T02:06:03.274Z,8.19
2017-09-18T02:07:03.269Z,8.05
2017-09-18T02:08:03.265Z,8.03
2017-09-18T02:09:03.261Z,8.10
2017-09-18T02:10:03.256Z,8.10
2017-09-18T02:11:03.249Z,8.08
2017-09-18T02:12:03.244Z,8.10
2017-09-18T02:13:03.243Z,8.12
2017-09-18T02:14:03.242Z,8.00
2017-09-18T02:15:03.234Z,8.03
2017-09-18T02:16:03.225Z,8.03
2017-09-18T02:17:03.224Z,8.00
2017-09-18T02:18:03.217Z,8.05
2017-09-18T02:19:03.209Z,8.01
2017-09-18T02:20:03.221Z,7.95
2017-09-18T02:21:03.209Z,8.00
2017-09-18T02:22:03.196Z,7.95
2017-09-18T02:23:03.195Z,7.91
2017-09-18T02:24:03.186Z,7.97
2017-09-18T02:25:03.183Z,7.95
2017-09-18T02:26:03.176Z,7.97
2017-09-18T02:27:03.172Z,8.00
2017-09-18T02:28:03.166Z,7.90
2017-09-18T02:29:03.162Z,8.00
2017-09-18T02:30:03.156Z,7.85
2017-09-18T02:31:03.154Z,7.90
2017-09-18T02:32:03.150Z,7.87
2017-09-18T02:33:03.146Z,7.75
2017-09-18T02:34:03.138Z,7.67
2017-09-18T02:35:03.134Z,7.73
2017-09-18T02:36:03.125Z,7.73
2017-09-18T02:37:03.122Z,7.61
2017-09-18T02:38:03.118Z,7.58
2017-09-18T02:39:03.112Z,7.72
2017-09-18T02:40:03.104Z,7.56
2017-09-18T02:41:03.101Z,7.69
2017-09-18T02:42:03.103Z,7.72
2017-09-18T02:43:03.093Z,7.75
2017-09-18T02:44:03.086Z,7.73
2017-09-18T02:45:03.082Z,7.70
2017-09-18T02:46:03.077Z,7.75
2017-09-18T02:47:03.071Z,7.72
2017-09-18T02:48:03.065Z,7.69
2017-09-18T02:49:03.065Z,7.75
2017-09-18T02:50:03.055Z,7.80
2017-09-18T02:51:03.050Z,7.73
2017-09-18T02:52:03.046Z,7.75
2017-09-18T02:53:03.043Z,7.73
2017-09-18T02:54:03.036Z,7.67
2017-09-18T02:55:03.031Z,7.60
2017-09-18T02:56:03.029Z,7.61
2017-09-18T02:57:03.024Z,7.56
2017-09-18T02:58:03.015Z,7.56
2017-09-18T02:59:03.020Z,7.61
2017-09-18T03:00:03.006Z,7.61
2017-09-18T03:01:03.000Z,7.58
2017-09-18T03:02:02.999Z,7.50
2017-09-18T03:03:02.992Z,7.58
2017-09-18T03:04:02.984Z,7.56
2017-09-18T03:05:02.980Z,7.60
2017-09-18T03:06:02.977Z,7.61
2017-09-18T03:07:02.970Z,7.57
2017-09-18T03:08:02.964Z,7.51
2017-09-18T03:09:02.963Z,7.57
2017-09-18T03:10:02.955Z,7.51
2017-09-18T03:11:02.952Z,7.40
2017-09-18T03:12:02.941Z,7.53
2017-09-18T03:13:02.934Z,7.57
2017-09-18T03:14:02.933Z,7.57
2017-09-18T03:15:02.931Z,7.50
2017-09-18T03:16:02.924Z,7.54
2017-09-18T03:17:02.919Z,7.54
2017-09-18T03:18:02.916Z,7.42
2017-09-18T03:19:02.910Z,7.42
2017-09-18T03:20:02.901Z,7.42
2017-09-18T03:21:02.897Z,7.42
2017-09-18T03:22:02.891Z,7.40
2017-09-18T03:23:02.891Z,7.42
2017-09-18T03:24:02.885Z,7.36
2017-09-18T03:25:02.877Z,7.39
2017-09-18T03:26:02.872Z,7.50
2017-09-18T03:27:02.867Z,7.47
2017-09-18T03:28:02.860Z,7.31
2017-09-18T03:29:02.850Z,7.35
2017-09-18T03:30:02.855Z,7.42
2017-09-18T03:31:02.853Z,7.39
2017-09-18T03:32:02.837Z,7.36
2017-09-18T03:33:02.834Z,7.36
2017-09-18T03:34:02.830Z,7.35
2017-09-18T03:35:02.823Z,7.32
2017-09-18T03:36:02.818Z,7.29
2017-09-18T03:37:02.814Z,7.32
2017-09-18T03:38:02.820Z,7.20
2017-09-18T03:39:02.801Z,7.28
2017-09-18T03:40:02.793Z,7.29
2017-09-18T03:41:02.791Z,7.21
2017-09-18T03:42:02.786Z,7.24
2017-09-18T03:43:02.783Z,7.21
2017-09-18T03:44:02.774Z,7.24
2017-09-18T03:45:02.773Z,7.24
2017-09-18T03:46:02.764Z,7.24
2017-09-18T03:47:02.761Z,7.21
2017-09-18T03:48:02.754Z,7.15
2017-09-18T03:49:02.749Z,7.20
2017-09-18T03:50:02.758Z,7.25
2017-09-18T03:51:02.736Z,7.25
2017-09-18T03:52:02.732Z,7.24
2017-09-18T03:53:02.728Z,7.24
2017-09-18T03:54:02.721Z,7.25
2017-09-18T03:55:02.717Z,7.20
2017-09-18T03:56:02.710Z,7.25
2017-09-18T03:57:02.704Z,7.25
2017-09-18T03:58:02.700Z,7.15
2017-09-18T03:59:02.694Z,7.20
2017-09-18T04:00:02.688Z,7.23
2017-09-18T04:01:02.683Z,7.24
2017-09-18T04:02:02.679Z,7.24
2017-09-18T04:03:02.676Z,7.20
2017-09-18T04:04:02.666Z,7.25
2017-09-18T04:05:02.663Z,7.14
2017-09-18T04:06:02.655Z,7.18
2017-09-18T04:07:02.651Z,7.15
2017-09-18T04:08:02.643Z,7.17
2017-09-18T04:09:02.640Z,7.13
2017-09-18T04:10:02.635Z,7.11
2017-09-18T04:11:02.627Z,7.20
2017-09-18T04:12:02.622Z,7.10
2017-09-18T04:13:02.619Z,7.07
2017-09-18T04:14:02.612Z,7.10
2017-09-18T04:15:02.643Z,7.17
2017-09-18T04:16:02.600Z,7.14
2017-09-18T04:17:02.597Z,7.06
2017-09-18T04:18:02.589Z,7.14
2017-09-18T04:19:02.583Z,7.25
2017-09-18T04:20:02.576Z,7.20
2017-09-18T04:21:02.571Z,7.24
2017-09-18T04:22:02.572Z,7.25
2017-09-18T04:23:02.566Z,7.14
2017-09-18T04:24:02.557Z,7.15
2017-09-18T04:25:02.560Z,7.02
2017-09-18T04:26:02.545Z,7.07
2017-09-18T04:27:02.536Z,7.02
2017-09-18T04:28:02.533Z,7.06
2017-09-18T04:29:02.528Z,7.03
2017-09-18T04:30:02.523Z,6.89
2017-09-18T04:31:02.523Z,6.89
2017-09-18T04:32:02.516Z,6.95
2017-09-18T04:33:02.507Z,7.02
2017-09-18T04:34:02.500Z,7.05
2017-09-18T04:35:02.495Z,7.02
2017-09-18T04:36:02.489Z,6.95
2017-09-18T04:37:02.483Z,7.10
2017-09-18T04:38:02.479Z,7.07
2017-09-18T04:39:02.474Z,7.05
2017-09-18T04:40:02.465Z,7.00
2017-09-18T04:41:02.458Z,7.00
2017-09-18T04:42:02.458Z,7.05
2017-09-18T04:43:02.455Z,7.14
2017-09-18T04:44:02.442Z,7.03
2017-09-18T04:45:02.440Z,7.05
2017-09-18T04:46:02.433Z,7.03
2017-09-18T04:47:02.430Z,7.00
2017-09-18T04:48:02.423Z,7.10
2017-09-18T04:49:02.414Z,7.07
2017-09-18T04:50:02.422Z,7.10
2017-09-18T04:51:02.404Z,7.11
2017-09-18T04:52:02.399Z,7.20
2017-09-18T04:53:02.396Z,7.15
2017-09-18T04:54:02.387Z,7.21
2017-09-18T04:55:02.384Z,7.15
2017-09-18T04:56:02.378Z,7.25
2017-09-18T04:57:02.379Z,7.14
2017-09-18T04:58:02.365Z,7.15
2017-09-18T04:59:02.359Z,7.17
2017-09-18T05:00:02.354Z,7.05
2017-09-18T05:01:02.347Z,7.05
2017-09-18T05:02:02.346Z,7.05
2017-09-18T05:03:02.341Z,7.00
2017-09-18T05:04:02.331Z,7.00
2017-09-18T05:05:02.326Z,7.06
2017-09-18T05:06:02.323Z,7.17
2017-09-18T05:07:02.314Z,7.07
2017-09-18T05:08:02.307Z,7.18
2017-09-18T05:09:02.303Z,7.24
2017-09-18T05:10:02.295Z,7.14
2017-09-18T05:11:02.289Z,7.25
2017-09-18T05:12:02.288Z,7.28
2017-09-18T05:13:02.286Z,7.23
2017-09-18T05:14:02.276Z,7.25
2017-09-18T05:15:02.270Z,7.29
2017-09-18T05:16:02.265Z,7.33
2017-09-18T05:17:02.258Z,7.39
2017-09-18T05:18:02.254Z,7.54
2017-09-18T05:19:02.249Z,7.75
2017-09-18T05:20:02.245Z,7.88
2017-09-18T05:21:02.236Z,7.98
2017-09-18T05:22:02.232Z,7.97
2017-09-18T05:23:02.230Z,7.90
2017-09-18T05:24:02.246Z,7.82
2017-09-18T05:25:02.215Z,7.72
2017-09-18T05:26:02.210Z,7.70
2017-09-18T05:27:02.212Z,7.60
2017-09-18T05:28:02.200Z,7.77
2017-09-18T05:29:02.193Z,7.72
2017-09-18T05:30:02.187Z,7.70
2017-09-18T05:31:02.185Z,7.69
2017-09-18T05:32:02.178Z,7.72
2017-09-18T05:33:02.175Z,7.60
2017-09-18T05:34:02.168Z,7.72
2017-09-18T05:35:02.160Z,7.70
2017-09-18T05:36:02.158Z,7.73
2017-09-18T05:37:02.151Z,7.72
2017-09-18T05:38:02.148Z,7.77
2017-09-18T05:39:02.144Z,7.75
2017-09-18T05:40:02.148Z,7.88
2017-09-18T05:41:02.133Z,7.80
2017-09-18T05:42:02.129Z,7.90
2017-09-18T05:43:02.124Z,7.95
2017-09-18T05:44:02.119Z,7.90
2017-09-18T05:45:02.115Z,7.90
2017-09-18T05:46:02.108Z,7.97
2017-09-18T05:47:02.110Z,8.10
2017-09-18T05:48:02.098Z,8.09
2017-09-18T05:49:02.091Z,8.08
2017-09-18T05:50:02.086Z,8.19
2017-09-18T05:51:02.082Z,8.19
2017-09-18T05:52:02.080Z,8.26
2017-09-18T05:53:02.087Z,8.24
2017-09-18T05:54:02.071Z,8.28
2017-09-18T05:55:02.062Z,8.41
2017-09-18T05:56:02.057Z,8.46
2017-09-18T05:57:02.049Z,8.53
2017-09-18T05:58:02.048Z,8.44
2017-09-18T05:59:02.046Z,8.53
2017-09-18T06:00:02.039Z,8.52
2017-09-18T06:01:02.027Z,8.64
2017-09-18T06:02:02.030Z,8.63
2017-09-18T06:03:02.037Z,8.64
2017-09-18T06:04:02.019Z,8.66
2017-09-18T06:05:02.013Z,8.76
2017-09-18T06:06:02.011Z,8.79
2017-09-18T06:07:02.027Z,8.74
2017-09-18T06:08:02.001Z,8.91
2017-09-18T06:09:01.996Z,8.87
2017-09-18T06:10:01.994Z,8.95
2017-09-18T06:11:01.991Z,9.02
2017-09-18T06:12:01.986Z,9.06
2017-09-18T06:13:01.986Z,9.08
2017-09-18T06:14:01.976Z,9.18
2017-09-18T06:15:01.982Z,9.25
2017-09-18T06:16:01.963Z,9.26
2017-09-18T06:17:01.958Z,9.34
2017-09-18T06:18:01.957Z,9.39
2017-09-18T06:19:01.956Z,9.44
2017-09-18T06:20:01.949Z,9.43
2017-09-18T06:21:01.946Z,9.61
2017-09-18T06:22:01.944Z,9.65
2017-09-18T06:23:01.940Z,9.69
2017-09-18T06:24:01.937Z,9.79
2017-09-18T06:25:01.938Z,9.91
2017-09-18T06:26:01.927Z,9.95
2017-09-18T06:27:01.925Z,10.04
2017-09-18T06:28:01.918Z,10.19
2017-09-18T06:29:01.915Z,10.26
2017-09-18T06:30:01.913Z,10.51
2017-09-18T06:31:01.910Z,10.51
2017-09-18T06:32:01.909Z,10.61
2017-09-18T06:33:01.910Z,10.74
2017-09-18T06:34:01.896Z,10.74
2017-09-18T06:35:01.901Z,10.86
2017-09-18T06:36:01.890Z,10.93
2017-09-18T06:37:01.889Z,10.99
2017-09-18T06:38:01.884Z,10.94
2017-09-18T06:39:01.883Z,11.00
2017-09-18T06:40:01.880Z,10.99
2017-09-18T06:41:01.878Z,10.87
2017-09-18T06:42:01.869Z,10.86
2017-09-18T06:43:01.873Z,10.87
2017-09-18T06:44:01.872Z,10.84
2017-09-18T06:45:01.867Z,10.97
2017-09-18T06:46:01.864Z,10.86
2017-09-18T06:47:01.869Z,10.99
2017-09-18T06:48:01.857Z,10.99
2017-09-18T06:49:01.857Z,11.02
2017-09-18T06:50:01.852Z,11.02
2017-09-18T06:51:01.864Z,11.02
2017-09-18T06:52:01.847Z,11.04
2017-09-18T06:53:01.848Z,11.00
2017-09-18T06:54:01.849Z,11.07
2017-09-18T06:55:01.845Z,11.02
2017-09-18T06:56:01.841Z,11.15
2017-09-18T06:57:01.837Z,11.15
2017-09-18T06:58:01.836Z,11.22
2017-09-18T06:59:01.836Z,11.23
2017-09-18T07:00:01.905Z,11.32
2017-09-18T07:01:03.773Z,11.33
2017-09-18T07:02:01.876Z,11.37
2017-09-18T07:03:01.830Z,11.43
2017-09-18T07:04:01.820Z,11.45
2017-09-18T07:05:01.819Z,11.50
2017-09-18T07:06:01.818Z,11.63
2017-09-18T07:07:01.815Z,11.65
2017-09-18T07:08:01.812Z,11.66
2017-09-18T07:09:01.810Z,11.66
2017-09-18T07:10:01.806Z,11.62
2017-09-18T07:11:01.808Z,11.65
2017-09-18T07:12:01.802Z,11.66
2017-09-18T07:13:01.808Z,11.75
2017-09-18T07:14:01.821Z,11.72
2017-09-18T07:15:01.797Z,11.73
2017-09-18T07:16:01.800Z,11.81
2017-09-18T07:17:01.796Z,11.78
2017-09-18T07:18:01.787Z,11.77
2017-09-18T07:19:01.789Z,11.88
2017-09-18T07:20:01.802Z,11.90
2017-09-18T07:21:01.789Z,11.90
2017-09-18T07:22:01.788Z,11.87
2017-09-18T07:23:01.788Z,11.91
2017-09-18T07:24:01.787Z,11.90
2017-09-18T07:25:01.796Z,11.94
2017-09-18T07:26:01.793Z,11.91
2017-09-18T07:27:01.780Z,11.90
2017-09-18T07:28:01.777Z,11.97
2017-09-18T07:29:01.775Z,11.86
2017-09-18T07:30:01.774Z,11.94
2017-09-18T07:31:01.773Z,11.91
2017-09-18T07:32:01.771Z,12.04
2017-09-18T07:33:01.772Z,12.03
2017-09-18T07:34:01.770Z,12.10
2017-09-18T07:35:01.770Z,12.00
2017-09-18T07:36:01.764Z,12.02
2017-09-18T07:37:01.765Z,11.91
2017-09-18T07:38:01.768Z,11.88
2017-09-18T07:39:01.761Z,11.94
2017-09-18T07:40:01.758Z,11.95
2017-09-18T07:41:01.754Z,11.84
2017-09-18T07:42:01.756Z,11.87
2017-09-18T07:43:01.756Z,11.90
2017-09-18T07:44:01.751Z,11.95
2017-09-18T07:45:01.749Z,11.87
2017-09-18T07:46:01.747Z,11.94
2017-09-18T07:47:01.749Z,11.91
2017-09-18T07:48:01.783Z,12.03
2017-09-18T07:49:01.743Z,12.00
2017-09-18T07:50:01.741Z,12.06
2017-09-18T07:51:01.741Z,11.95
2017-09-18T07:52:01.737Z,12.02
2017-09-18T07:53:01.738Z,12.04
2017-09-18T07:54:01.732Z,12.06
2017-09-18T07:55:01.734Z,12.20
2017-09-18T07:56:01.732Z,12.21
2017-09-18T07:57:01.729Z,12.20
2017-09-18T07:58:01.728Z,12.22
2017-09-18T07:59:01.733Z,12.24
2017-09-18T08:00:01.723Z,12.09
2017-09-18T08:01:01.722Z,12.07
2017-09-18T08:02:01.725Z,11.97
2017-09-18T08:03:01.728Z,11.95
2017-09-18T08:04:01.728Z,12.02
2017-09-18T08:05:02.293Z,12.02
2017-09-18T08:06:01.713Z,11.91
2017-09-18T08:07:01.713Z,11.95
2017-09-18T08:08:01.726Z,11.95
2017-09-18T08:09:01.710Z,12.06
2017-09-18T08:10:01.709Z,12.07
2017-09-18T08:11:01.713Z,12.12
2017-09-18T08:12:01.707Z,12.21
2017-09-18T08:13:01.702Z,12.21
2017-09-18T08:14:01.700Z,12.22
2017-09-18T08:15:01.702Z,12.21
2017-09-18T08:16:01.716Z,12.25
2017-09-18T08:17:01.699Z,12.31
2017-09-18T08:18:01.697Z,12.27
2017-09-18T08:19:01.695Z,12.29
2017-09-18T08:20:01.692Z,12.35
2017-09-18T08:21:01.692Z,12.35
2017-09-18T08:22:01.693Z,12.35
2017-09-18T08:23:01.694Z,12.45
2017-09-18T08:24:01.688Z,12.49
2017-09-18T08:25:01.682Z,12.57
2017-09-18T08:26:01.684Z,12.58
2017-09-18T08:27:01.681Z,12.67
2017-09-18T08:28:01.682Z,12.82
2017-09-18T08:29:01.692Z,12.91
2017-09-18T08:30:01.680Z,12.87
2017-09-18T08:31:01.678Z,12.91
2017-09-18T08:32:01.676Z,12.95
2017-09-18T08:33:01.683Z,13.09
2017-09-18T08:34:01.675Z,13.12
2017-09-18T08:35:01.673Z,13.12
2017-09-18T08:36:01.671Z,13.11
2017-09-18T08:37:01.671Z,13.12
2017-09-18T08:38:01.671Z,13.20
2017-09-18T08:39:01.670Z,13.30
2017-09-18T08:40:01.670Z,13.27
2017-09-18T08:41:01.667Z,13.27
2017-09-18T08:42:01.669Z,13.23
2017-09-18T08:43:01.667Z,13.19
2017-09-18T08:44:01.670Z,13.23
2017-09-18T08:45:01.668Z,13.22
2017-09-18T08:46:01.666Z,13.12
2017-09-18T08:47:01.666Z,13.23
2017-09-18T08:48:01.666Z,13.16
2017-09-18T08:49:01.662Z,13.09
2017-09-18T08:50:01.667Z,13.15
2017-09-18T08:51:01.666Z,13.13
2017-09-18T08:52:01.665Z,13.08
2017-09-18T08:53:01.660Z,13.09
2017-09-18T08:54:01.663Z,13.00
2017-09-18T08:55:01.661Z,12.91
2017-09-18T08:56:01.662Z,12.90
2017-09-18T08:57:01.660Z,12.94
2017-09-18T08:58:01.663Z,12.83
2017-09-18T08:59:01.661Z,12.94
2017-09-18T09:00:01.660Z,12.82
2017-09-18T09:01:01.670Z,12.83
2017-09-18T09:02:01.663Z,12.72
2017-09-18T09:03:01.657Z,12.61
2017-09-18T09:04:01.656Z,12.70
2017-09-18T09:05:01.653Z,12.62
2017-09-18T09:06:01.669Z,12.60
2017-09-18T09:07:01.653Z,12.61
2017-09-18T09:08:01.651Z,12.58
2017-09-18T09:09:01.645Z,12.60
2017-09-18T09:10:01.657Z,12.61
2017-09-18T09:11:01.647Z,12.64
2017-09-18T09:12:01.647Z,12.58
2017-09-18T09:13:01.645Z,12.60
2017-09-18T09:14:01.645Z,12.58
2017-09-18T09:15:01.648Z,12.46
2017-09-18T09:16:01.641Z,12.55
2017-09-18T09:17:01.640Z,12.55
2017-09-18T09:18:01.641Z,12.54
2017-09-18T09:19:01.635Z,12.55
2017-09-18T09:20:01.634Z,12.53
2017-09-18T09:21:01.631Z,12.43
2017-09-18T09:22:01.633Z,12.47
2017-09-18T09:23:01.632Z,12.49
2017-09-18T09:24:01.629Z,12.57
2017-09-18T09:25:01.632Z,12.57
2017-09-18T09:26:01.627Z,12.58
2017-09-18T09:27:01.646Z,12.70
2017-09-18T09:28:01.647Z,12.75
2017-09-18T09:29:01.621Z,12.80
2017-09-18T09:30:01.614Z,12.91
2017-09-18T09:31:01.619Z,12.94
2017-09-18T09:32:01.617Z,12.90
2017-09-18T09:33:01.617Z,12.93
2017-09-18T09:34:01.616Z,12.93
2017-09-18T09:35:01.617Z,12.97
2017-09-18T09:36:01.611Z,12.95
2017-09-18T09:37:01.611Z,13.09
2017-09-18T09:38:01.613Z,13.08
2017-09-18T09:39:01.613Z,13.13
2017-09-18T09:40:01.614Z,13.25
2017-09-18T09:41:01.606Z,13.20
2017-09-18T09:42:01.605Z,13.33
2017-09-18T09:43:01.603Z,13.46
2017-09-18T09:44:01.605Z,13.57
2017-09-18T09:45:01.601Z,13.56
2017-09-18T09:46:01.596Z,13.47
2017-09-18T09:47:01.603Z,13.52
2017-09-18T09:48:01.597Z,13.53
2017-09-18T09:49:01.599Z,13.50
2017-09-18T09:50:01.598Z,13.56
2017-09-18T09:51:01.596Z,13.62
2017-09-18T09:52:01.604Z,13.57
2017-09-18T09:53:01.589Z,13.57
2017-09-18T09:54:01.598Z,13.59
2017-09-18T09:55:01.591Z,13.60
2017-09-18T09:56:01.589Z,13.65
2017-09-18T09:57:01.597Z,13.72
2017-09-18T09:58:01.589Z,13.71
2017-09-18T09:59:01.591Z,13.78
2017-09-18T10:00:01.587Z,13.78
2017-09-18T10:01:01.586Z,13.81
2017-09-18T10:02:01.589Z,13.96
2017-09-18T10:03:01.591Z,14.08
2017-09-18T10:04:01.583Z,14.14
2017-09-18T10:05:01.596Z,14.25
2017-09-18T10:06:01.583Z,14.32
2017-09-18T10:07:01.601Z,14.43
2017-09-18T10:08:01.582Z,14.48
2017-09-18T10:09:01.581Z,14.54
2017-09-18T10:10:01.583Z,14.59
2017-09-18T10:11:01.580Z,14.53
2017-09-18T10:12:01.579Z,14.53
2017-09-18T10:13:01.583Z,14.65
2017-09-18T10:14:01.581Z,14.66
2017-09-18T10:15:01.632Z,14.54
2017-09-18T10:16:01.578Z,14.47
2017-09-18T10:17:01.580Z,14.37
2017-09-18T10:18:01.592Z,14.40
2017-09-18T10:19:01.579Z,14.53
2017-09-18T10:20:01.581Z,14.48
2017-09-18T10:21:01.574Z,14.51
2017-09-18T10:22:01.595Z,14.53
2017-09-18T10:23:01.581Z,14.54
2017-09-18T10:24:01.576Z,14.53
2017-09-18T10:25:01.576Z,14.55
2017-09-18T10:26:01.577Z,14.65
2017-09-18T10:27:01.577Z,14.60
2017-09-18T10:28:01.587Z,14.66
2017-09-18T10:29:01.585Z,14.66
2017-09-18T10:30:01.577Z,14.63
2017-09-18T10:31:01.577Z,14.59
2017-09-18T10:32:01.579Z,14.69
2017-09-18T10:33:01.581Z,14.59
2017-09-18T10:34:01.576Z,14.50
2017-09-18T10:35:01.573Z,14.51
2017-09-18T10:36:01.577Z,14.51
2017-09-18T10:37:01.576Z,14.47
2017-09-18T10:38:01.577Z,14.50
2017-09-18T10:39:01.577Z,14.45
2017-09-18T10:40:01.576Z,14.48
2017-09-18T10:41:01.578Z,14.48
2017-09-18T10:42:01.573Z,14.51
2017-09-18T10:43:01.583Z,14.53
2017-09-18T10:44:01.578Z,14.40
2017-09-18T10:45:01.577Z,14.36
2017-09-18T10:46:01.575Z,14.37
2017-09-18T10:47:01.579Z,14.28
2017-09-18T10:48:01.580Z,14.30
2017-09-18T10:49:01.579Z,14.18
2017-09-18T10:50:01.577Z,14.15
2017-09-18T10:51:01.585Z,14.10
2017-09-18T10:52:01.575Z,14.11
2017-09-18T10:53:01.577Z,14.22
2017-09-18T10:54:01.576Z,14.35
2017-09-18T10:55:01.576Z,14.33
2017-09-18T10:56:01.577Z,14.40
2017-09-18T10:57:01.573Z,14.45
2017-09-18T10:58:01.574Z,14.54
2017-09-18T10:59:01.640Z,14.51
2017-09-18T11:00:01.583Z,14.69
2017-09-18T11:01:01.574Z,14.81
2017-09-18T11:02:01.575Z,14.77
2017-09-18T11:03:01.570Z,14.96
2017-09-18T11:04:01.573Z,15.04
2017-09-18T11:05:01.573Z,15.17
2017-09-18T11:06:01.575Z,15.07
2017-09-18T11:07:01.584Z,15.17
2017-09-18T11:08:01.573Z,15.24
2017-09-18T11:09:01.579Z,15.19
2017-09-18T11:10:01.573Z,15.27
2017-09-18T11:11:01.579Z,15.27
2017-09-18T11:12:01.576Z,15.46
2017-09-18T11:13:01.586Z,15.55
2017-09-18T11:14:01.572Z,15.59
2017-09-18T11:15:01.573Z,15.68
2017-09-18T11:16:01.574Z,15.73
2017-09-18T11:17:01.574Z,15.80
2017-09-18T11:18:01.583Z,15.84
2017-09-18T11:19:01.587Z,15.91
2017-09-18T11:20:01.578Z,16.16
2017-09-18T11:21:01.575Z,16.16
2017-09-18T11:22:01.600Z,16.31
2017-09-18T11:23:01.605Z,16.53
2017-09-18T11:24:01.581Z,16.60
2017-09-18T11:25:01.581Z,16.69
2017-09-18T11:26:01.579Z,16.66
2017-09-18T11:27:01.582Z,16.64
2017-09-18T11:28:01.584Z,16.42
2017-09-18T11:29:01.585Z,16.42
2017-09-18T11:30:01.585Z,16.36
2017-09-18T11:31:01.587Z,16.31
2017-09-18T11:32:01.619Z,16.13
2017-09-18T11:33:01.595Z,16.17
2017-09-18T11:34:01.610Z,16.09
2017-09-18T11:35:01.591Z,16.29
2017-09-18T11:36:01.594Z,16.42
2017-09-18T11:37:01.600Z,16.68
2017-09-18T11:38:01.604Z,16.76
2017-09-18T11:39:01.600Z,16.91
2017-09-18T11:40:01.745Z,17.02
2017-09-18T11:41:01.602Z,17.12
2017-09-18T11:42:01.607Z,17.24
2017-09-18T11:43:01.613Z,17.29
2017-09-18T11:44:01.608Z,17.36
2017-09-18T11:45:01.610Z,17.38
2017-09-18T11:46:01.613Z,17.51
2017-09-18T11:47:01.620Z,17.46
2017-09-18T11:48:01.620Z,17.39
2017-09-18T11:49:01.620Z,17.38
2017-09-18T11:50:01.623Z,17.26
2017-09-18T11:51:01.622Z,17.23
2017-09-18T11:52:01.630Z,17.27
2017-09-18T11:53:01.634Z,17.27
2017-09-18T11:54:01.639Z,17.23
2017-09-18T11:55:01.664Z,17.12
2017-09-18T11:56:01.646Z,17.14
2017-09-18T11:57:01.640Z,17.22
2017-09-18T11:58:01.642Z,17.27
2017-09-18T11:59:01.644Z,17.15
2017-09-18T12:00:01.651Z,17.06
2017-09-18T12:01:01.652Z,17.05
2017-09-18T12:02:01.653Z,17.23
2017-09-18T12:03:01.659Z,17.29
2017-09-18T12:04:01.669Z,17.23
2017-09-18T12:05:01.667Z,17.26
2017-09-18T12:06:01.668Z,17.36
2017-09-18T12:07:01.668Z,17.33
2017-09-18T12:08:01.671Z,17.41
2017-09-18T12:09:01.686Z,17.46
2017-09-18T12:10:01.675Z,17.46
2017-09-18T12:11:01.680Z,17.45
2017-09-18T12:12:01.679Z,17.41
2017-09-18T12:13:01.690Z,17.36
2017-09-18T12:14:01.686Z,17.41
2017-09-18T12:15:01.688Z,17.31
2017-09-18T12:16:01.691Z,17.20
2017-09-18T12:17:01.698Z,17.24
2017-09-18T12:18:01.692Z,17.08
2017-09-18T12:19:01.698Z,17.19
2017-09-18T12:20:01.701Z,17.12
2017-09-18T12:21:01.704Z,17.20
2017-09-18T12:22:01.715Z,17.24
2017-09-18T12:23:01.712Z,17.27
2017-09-18T12:24:01.711Z,17.19
2017-09-18T12:25:01.714Z,17.14
2017-09-18T12:26:01.719Z,17.12
2017-09-18T12:27:01.718Z,17.22
2017-09-18T12:28:01.728Z,17.11
2017-09-18T12:29:01.727Z,17.01
2017-09-18T12:30:01.728Z,17.02
2017-09-18T12:31:01.726Z,17.02
2017-09-18T12:32:01.741Z,16.96
2017-09-18T12:33:01.745Z,17.04
2017-09-18T12:34:01.748Z,16.94
2017-09-18T12:35:01.746Z,17.22
2017-09-18T12:36:01.740Z,17.16
2017-09-18T12:37:01.759Z,17.05
2017-09-18T12:38:01.750Z,16.96
2017-09-18T12:39:01.751Z,16.94
2017-09-18T12:40:01.752Z,16.94
2017-09-18T12:41:01.755Z,16.89
2017-09-18T12:42:01.760Z,16.99
2017-09-18T12:43:01.762Z,16.96
2017-09-18T12:44:01.761Z,16.97
2017-09-18T12:45:01.768Z,16.93
2017-09-18T12:46:01.761Z,16.89
2017-09-18T12:47:01.769Z,16.94
2017-09-18T12:48:01.774Z,17.08
2017-09-18T12:49:01.776Z,17.16
2017-09-18T12:50:01.776Z,17.08
2017-09-18T12:51:01.778Z,17.05
2017-09-18T12:52:01.779Z,16.96
2017-09-18T12:53:01.822Z,17.06
2017-09-18T12:54:01.786Z,17.12
2017-09-18T12:55:01.786Z,17.11
2017-09-18T12:56:01.788Z,17.09
2017-09-18T12:57:01.792Z,17.19
2017-09-18T12:58:01.790Z,17.26
2017-09-18T12:59:01.796Z,17.12
2017-09-18T13:00:01.799Z,17.24
2017-09-18T13:01:01.799Z,17.26
2017-09-18T13:02:01.798Z,17.36
2017-09-18T13:03:01.811Z,17.31
2017-09-18T13:04:01.807Z,17.38
2017-09-18T13:05:01.813Z,17.30